sensor_id;sensor_type;location;lat;lon;timestamp;temperature;humidity
25188;DHT22;13141;50.414;8.050;2024-01-15T07:43:48;-0.90;99.90
25188;DHT22;13141;50.414;8.050;2024-01-15T07:46:14;-0.90;99.90
25188;DHT22;13141;50.414;8.050;2024-01-15T07:48:40;-0.70;99.90
25188;DHT22;13141;50.414;8.050;2024-01-15T07:51:05;-0.50;99.90
25188;DHT22;13141;50.414;8.050;2024-01-15T07:53:31;-0.40;99.90
25188;DHT22;13141;50.414;8.050;2024-01-15T07:55:57;-0.30;99.90
25188;DHT22;13141;50.414;8.050;2024-01-15T07:58:22;-0.20;99.90
25188;DHT22;13141;50.414;8.050;2024-01-15T08:00:49;-0.10;99.90
25188;DHT22;13141;50.414;8.050;2024-01-15T08:03:15;-0.10;99.90
25188;DHT22;13141;50.414;8.050;2024-01-15T08:05:41;0.00;99.90
25188;DHT22;13141;50.414;8.050;2024-01-15T08:08:06;-0.10;99.90
25188;DHT22;13141;50.414;8.050;2024-01-15T08:10:32;0.00;99.90
25188;DHT22;13141;50.414;8.050;2024-01-15T08:12:58;0.00;99.90
25188;DHT22;13141;50.414;8.050;2024-01-15T08:15:23;0.10;99.90
25188;DHT22;13141;50.414;8.050;2024-01-15T08:17:50;0.20;99.90
25188;DHT22;13141;50.414;8.050;2024-01-15T08:20:16;0.20;99.90
25188;DHT22;13141;50.414;8.050;2024-01-15T08:22:42;0.20;99.90
25188;DHT22;13141;50.414;8.050;2024-01-15T08:25:09;0.30;99.90
25188;DHT22;13141;50.414;8.050;2024-01-15T08:27:34;0.30;99.90
25188;DHT22;13141;50.414;8.050;2024-01-15T08:30:00;0.30;99.90
25188;DHT22;13141;50.414;8.050;2024-01-15T08:32:25;0.30;99.90
25188;DHT22;13141;50.414;8.050;2024-01-15T08:34:52;0.40;99.90
25188;DHT22;13141;50.414;8.050;2024-01-15T08:37:20;0.40;99.90
25188;DHT22;13141;50.414;8.050;2024-01-15T08:39:46;0.40;99.90
25188;DHT22;13141;50.414;8.050;2024-01-15T08:42:11;0.50;99.90
25188;DHT22;13141;50.414;8.050;2024-01-15T08:44:37;0.50;99.90
25188;DHT22;13141;50.414;8.050;2024-01-15T08:47:03;0.60;99.90
25188;DHT22;13141;50.414;8.050;2024-01-15T08:49:29;0.60;99.90
25188;DHT22;13141;50.414;8.050;2024-01-15T08:51:56;0.70;99.90
25188;DHT22;13141;50.414;8.050;2024-01-15T08:54:23;0.90;99.90
25188;DHT22;13141;50.414;8.050;2024-01-15T08:56:49;0.80;99.90
25188;DHT22;13141;50.414;8.050;2024-01-15T08:59:14;1.00;99.90
25188;DHT22;13141;50.414;8.050;2024-01-15T09:01:40;1.00;99.90
25188;DHT22;13141;50.414;8.050;2024-01-15T09:04:05;1.00;99.90
25188;DHT22;13141;50.414;8.050;2024-01-15T09:06:31;1.00;99.90
25188;DHT22;13141;50.414;8.050;2024-01-15T09:08:58;1.10;99.90
25188;DHT22;13141;50.414;8.050;2024-01-15T09:11:24;1.10;99.90
25188;DHT22;13141;50.414;8.050;2024-01-15T09:13:49;1.20;99.90
25188;DHT22;13141;50.414;8.050;2024-01-15T09:16:15;1.20;99.90
25188;DHT22;13141;50.414;8.050;2024-01-15T09:18:41;1.30;99.90
25188;DHT22;13141;50.414;8.050;2024-01-15T09:21:07;1.40;99.90
25188;DHT22;13141;50.414;8.050;2024-01-15T09:23:32;1.40;99.90
25188;DHT22;13141;50.414;8.050;2024-01-15T09:26:00;1.50;99.90
25188;DHT22;13141;50.414;8.050;2024-01-15T09:28:25;1.60;99.90
25188;DHT22;13141;50.414;8.050;2024-01-15T09:30:51;1.70;99.90
25188;DHT22;13141;50.414;8.050;2024-01-15T09:33:17;1.70;99.90
25188;DHT22;13141;50.414;8.050;2024-01-15T09:35:42;1.70;99.90
25188;DHT22;13141;50.414;8.050;2024-01-15T09:38:08;1.80;99.90
25188;DHT22;13141;50.414;8.050;2024-01-15T09:40:34;1.80;99.90
25188;DHT22;13141;50.414;8.050;2024-01-15T09:43:04;1.80;99.90
25188;DHT22;13141;50.414;8.050;2024-01-15T09:45:30;1.80;99.90
25188;DHT22;13141;50.414;8.050;2024-01-15T09:47:56;1.90;99.90
25188;DHT22;13141;50.414;8.050;2024-01-15T09:50:22;1.80;99.90
25188;DHT22;13141;50.414;8.050;2024-01-15T09:52:48;2.00;99.90
25188;DHT22;13141;50.414;8.050;2024-01-15T09:55:15;2.10;99.90
25188;DHT22;13141;50.414;8.050;2024-01-15T09:57:41;2.30;99.90
25188;DHT22;13141;50.414;8.050;2024-01-15T10:00:09;2.40;99.90
25188;DHT22;13141;50.414;8.050;2024-01-15T10:02:37;2.30;99.90
25188;DHT22;13141;50.414;8.050;2024-01-15T10:05:03;2.40;99.90
25188;DHT22;13141;50.414;8.050;2024-01-15T10:07:29;2.40;99.90
25188;DHT22;13141;50.414;8.050;2024-01-15T10:09:55;2.40;99.90
25188;DHT22;13141;50.414;8.050;2024-01-15T10:12:22;2.50;99.90
25188;DHT22;13141;50.414;8.050;2024-01-15T10:14:47;2.50;99.90
25188;DHT22;13141;50.414;8.050;2024-01-15T10:17:15;2.50;99.90
25188;DHT22;13141;50.414;8.050;2024-01-15T10:19:40;2.60;99.90
25188;DHT22;13141;50.414;8.050;2024-01-15T10:22:07;2.60;99.90
25188;DHT22;13141;50.414;8.050;2024-01-15T10:24:32;2.60;99.90
25188;DHT22;13141;50.414;8.050;2024-01-15T10:27:05;2.50;99.90
25188;DHT22;13141;50.414;8.050;2024-01-15T10:29:31;2.70;99.90
25188;DHT22;13141;50.414;8.050;2024-01-15T10:31:57;2.50;99.90
25188;DHT22;13141;50.414;8.050;2024-01-15T10:34:25;2.40;99.90
25188;DHT22;13141;50.414;8.050;2024-01-15T10:36:50;2.40;99.90
25188;DHT22;13141;50.414;8.050;2024-01-15T10:39:16;2.40;99.90
25188;DHT22;13141;50.414;8.050;2024-01-15T10:41:42;2.50;99.90
25188;DHT22;13141;50.414;8.050;2024-01-15T10:44:07;2.50;99.90
25188;DHT22;13141;50.414;8.050;2024-01-15T10:46:34;2.50;99.90
25188;DHT22;13141;50.414;8.050;2024-01-15T10:49:00;2.50;99.90
25188;DHT22;13141;50.414;8.050;2024-01-15T10:51:27;2.40;99.90
25188;DHT22;13141;50.414;8.050;2024-01-15T10:53:53;2.40;99.90
25188;DHT22;13141;50.414;8.050;2024-01-15T10:56:21;2.50;99.90
25188;DHT22;13141;50.414;8.050;2024-01-15T10:58:47;2.60;99.90
25188;DHT22;13141;50.414;8.050;2024-01-15T11:01:14;2.80;99.90
25188;DHT22;13141;50.414;8.050;2024-01-15T11:03:42;2.80;99.90
25188;DHT22;13141;50.414;8.050;2024-01-15T11:06:16;2.70;99.90
25188;DHT22;13141;50.414;8.050;2024-01-15T11:08:44;2.70;99.90
25188;DHT22;13141;50.414;8.050;2024-01-15T11:11:09;2.80;99.90
25188;DHT22;13141;50.414;8.050;2024-01-15T11:13:40;2.80;99.90
25188;DHT22;13141;50.414;8.050;2024-01-15T11:16:07;2.70;99.90
25188;DHT22;13141;50.414;8.050;2024-01-15T11:18:35;2.70;99.90
25188;DHT22;13141;50.414;8.050;2024-01-15T11:21:21;2.70;99.90
25188;DHT22;13141;50.414;8.050;2024-01-15T11:23:49;2.70;99.90
25188;DHT22;13141;50.414;8.050;2024-01-15T11:26:35;2.70;99.90
25188;DHT22;13141;50.414;8.050;2024-01-15T11:29:02;2.60;99.90
25188;DHT22;13141;50.414;8.050;2024-01-15T11:31:29;2.60;99.90
25188;DHT22;13141;50.414;8.050;2024-01-15T11:33:54;2.50;99.90
25188;DHT22;13141;50.414;8.050;2024-01-15T11:36:20;2.50;99.90
25188;DHT22;13141;50.414;8.050;2024-01-15T11:38:47;2.50;99.90
25188;DHT22;13141;50.414;8.050;2024-01-15T11:41:14;2.50;99.90
25188;DHT22;13141;50.414;8.050;2024-01-15T11:43:40;2.50;99.90
25188;DHT22;13141;50.414;8.050;2024-01-15T11:46:10;2.00;99.90
25188;DHT22;13141;50.414;8.050;2024-01-15T11:48:42;2.50;99.90
25188;DHT22;13141;50.414;8.050;2024-01-15T11:51:11;2.50;99.90
25188;DHT22;13141;50.414;8.050;2024-01-15T11:53:43;2.60;99.90
25188;DHT22;13141;50.414;8.050;2024-01-15T11:56:14;2.70;99.90
25188;DHT22;13141;50.414;8.050;2024-01-15T11:58:42;3.00;99.90
25188;DHT22;13141;50.414;8.050;2024-01-15T12:01:08;3.00;99.90
25188;DHT22;13141;50.414;8.050;2024-01-15T12:03:34;3.10;99.90
25188;DHT22;13141;50.414;8.050;2024-01-15T12:06:00;3.20;99.90
25188;DHT22;13141;50.414;8.050;2024-01-15T12:08:25;3.20;99.90
25188;DHT22;13141;50.414;8.050;2024-01-15T12:10:51;3.20;99.90
25188;DHT22;13141;50.414;8.050;2024-01-15T12:13:19;3.20;99.90
25188;DHT22;13141;50.414;8.050;2024-01-15T12:15:46;3.20;99.90
25188;DHT22;13141;50.414;8.050;2024-01-15T12:18:13;3.10;99.90
25188;DHT22;13141;50.414;8.050;2024-01-15T12:20:39;3.10;99.90
25188;DHT22;13141;50.414;8.050;2024-01-15T12:23:05;3.10;99.90
25188;DHT22;13141;50.414;8.050;2024-01-15T12:25:32;3.20;99.90
25188;DHT22;13141;50.414;8.050;2024-01-15T12:27:58;3.10;99.90
25188;DHT22;13141;50.414;8.050;2024-01-15T12:30:26;3.00;99.90
25188;DHT22;13141;50.414;8.050;2024-01-15T12:32:52;3.00;99.90
25188;DHT22;13141;50.414;8.050;2024-01-15T12:35:17;3.00;99.90
25188;DHT22;13141;50.414;8.050;2024-01-15T12:37:44;3.10;99.90
25188;DHT22;13141;50.414;8.050;2024-01-15T12:40:10;3.10;99.90
25188;DHT22;13141;50.414;8.050;2024-01-15T12:42:36;3.20;99.90
25188;DHT22;13141;50.414;8.050;2024-01-15T12:45:03;3.20;99.90
25188;DHT22;13141;50.414;8.050;2024-01-15T12:47:30;3.30;99.90
25188;DHT22;13141;50.414;8.050;2024-01-15T12:49:57;3.20;99.90
25188;DHT22;13141;50.414;8.050;2024-01-15T12:52:22;3.20;99.90
25188;DHT22;13141;50.414;8.050;2024-01-15T12:54:48;3.20;99.90
25188;DHT22;13141;50.414;8.050;2024-01-15T12:57:14;3.20;99.90
25188;DHT22;13141;50.414;8.050;2024-01-15T12:59:40;3.20;99.90
25188;DHT22;13141;50.414;8.050;2024-01-15T13:02:05;3.20;99.90
25188;DHT22;13141;50.414;8.050;2024-01-15T13:04:32;3.20;99.90
25188;DHT22;13141;50.414;8.050;2024-01-15T13:06:58;3.20;99.90
25188;DHT22;13141;50.414;8.050;2024-01-15T13:09:24;3.20;99.90
25188;DHT22;13141;50.414;8.050;2024-01-15T13:11:49;3.10;99.90
25188;DHT22;13141;50.414;8.050;2024-01-15T13:14:15;3.10;99.90
25188;DHT22;13141;50.414;8.050;2024-01-15T13:16:41;3.40;99.90
25188;DHT22;13141;50.414;8.050;2024-01-15T13:19:07;3.20;99.90
25188;DHT22;13141;50.414;8.050;2024-01-15T13:21:34;3.20;99.90
25188;DHT22;13141;50.414;8.050;2024-01-15T13:24:00;3.20;99.90
25188;DHT22;13141;50.414;8.050;2024-01-15T13:26:29;3.20;99.90
25188;DHT22;13141;50.414;8.050;2024-01-15T13:28:55;3.40;99.90
25188;DHT22;13141;50.414;8.050;2024-01-15T13:31:20;3.20;99.90
25188;DHT22;13141;50.414;8.050;2024-01-15T13:33:46;3.30;99.90
25188;DHT22;13141;50.414;8.050;2024-01-15T13:36:12;3.10;99.90
25188;DHT22;13141;50.414;8.050;2024-01-15T13:38:39;3.00;99.90
25188;DHT22;13141;50.414;8.050;2024-01-15T13:41:05;3.00;99.90
25188;DHT22;13141;50.414;8.050;2024-01-15T13:43:31;3.10;99.90
25188;DHT22;13141;50.414;8.050;2024-01-15T13:45:57;3.10;99.90
25188;DHT22;13141;50.414;8.050;2024-01-15T13:48:25;3.10;99.90
25188;DHT22;13141;50.414;8.050;2024-01-15T13:50:51;3.10;99.90
25188;DHT22;13141;50.414;8.050;2024-01-15T13:53:17;3.10;99.90
25188;DHT22;13141;50.414;8.050;2024-01-15T13:55:46;3.10;99.90
25188;DHT22;13141;50.414;8.050;2024-01-15T13:58:12;3.20;99.90
25188;DHT22;13141;50.414;8.050;2024-01-15T14:00:38;3.20;99.90
25188;DHT22;13141;50.414;8.050;2024-01-15T14:03:04;3.30;99.90
25188;DHT22;13141;50.414;8.050;2024-01-15T14:05:30;3.30;99.90
25188;DHT22;13141;50.414;8.050;2024-01-15T14:07:56;3.40;99.90
25188;DHT22;13141;50.414;8.050;2024-01-15T14:10:21;3.30;99.90
25188;DHT22;13141;50.414;8.050;2024-01-15T14:12:49;3.40;99.90
25188;DHT22;13141;50.414;8.050;2024-01-15T14:15:14;3.40;99.90
25188;DHT22;13141;50.414;8.050;2024-01-15T14:17:40;3.40;99.90
25188;DHT22;13141;50.414;8.050;2024-01-15T14:20:07;3.40;99.90
25188;DHT22;13141;50.414;8.050;2024-01-15T14:22:33;3.40;99.90
25188;DHT22;13141;50.414;8.050;2024-01-15T14:24:58;3.30;99.90
25188;DHT22;13141;50.414;8.050;2024-01-15T14:27:24;3.30;99.90
25188;DHT22;13141;50.414;8.050;2024-01-15T14:29:51;3.20;99.90
25188;DHT22;13141;50.414;8.050;2024-01-15T14:32:17;3.20;99.90
25188;DHT22;13141;50.414;8.050;2024-01-15T14:34:43;3.20;99.90
25188;DHT22;13141;50.414;8.050;2024-01-15T14:37:09;3.20;99.90
25188;DHT22;13141;50.414;8.050;2024-01-15T14:39:37;3.20;99.90
25188;DHT22;13141;50.414;8.050;2024-01-15T14:42:03;3.40;99.90
25188;DHT22;13141;50.414;8.050;2024-01-15T14:44:29;3.20;99.90
25188;DHT22;13141;50.414;8.050;2024-01-15T14:46:56;3.20;99.90
25188;DHT22;13141;50.414;8.050;2024-01-15T14:49:24;3.20;99.90
25188;DHT22;13141;50.414;8.050;2024-01-15T14:51:50;3.10;99.90
25188;DHT22;13141;50.414;8.050;2024-01-15T14:54:18;3.10;99.90
25188;DHT22;13141;50.414;8.050;2024-01-15T14:56:43;2.60;99.90
25188;DHT22;13141;50.414;8.050;2024-01-15T14:59:09;3.20;99.90
25188;DHT22;13141;50.414;8.050;2024-01-15T15:01:35;3.10;99.90
25188;DHT22;13141;50.414;8.050;2024-01-15T15:04:02;3.00;99.90
25188;DHT22;13141;50.414;8.050;2024-01-15T15:06:28;3.00;99.90
25188;DHT22;13141;50.414;8.050;2024-01-15T15:08:54;3.10;99.90
25188;DHT22;13141;50.414;8.050;2024-01-15T15:11:22;3.00;99.90
25188;DHT22;13141;50.414;8.050;2024-01-15T15:13:51;3.00;99.90
25188;DHT22;13141;50.414;8.050;2024-01-15T15:16:17;2.90;99.90
25188;DHT22;13141;50.414;8.050;2024-01-15T15:18:42;2.90;99.90
25188;DHT22;13141;50.414;8.050;2024-01-15T15:21:10;2.90;99.90
25188;DHT22;13141;50.414;8.050;2024-01-15T15:23:35;2.90;99.90
25188;DHT22;13141;50.414;8.050;2024-01-15T15:26:01;2.90;99.90
25188;DHT22;13141;50.414;8.050;2024-01-15T15:28:28;2.80;99.90
25188;DHT22;13141;50.414;8.050;2024-01-15T15:30:54;2.80;99.90
25188;DHT22;13141;50.414;8.050;2024-01-15T15:33:19;2.80;99.90
25188;DHT22;13141;50.414;8.050;2024-01-15T15:35:45;3.10;99.90
25188;DHT22;13141;50.414;8.050;2024-01-15T15:38:12;2.80;99.90
25188;DHT22;13141;50.414;8.050;2024-01-15T15:40:44;2.80;99.90
25188;DHT22;13141;50.414;8.050;2024-01-15T15:43:10;2.80;99.90
25188;DHT22;13141;50.414;8.050;2024-01-15T15:45:36;2.80;99.90
25188;DHT22;13141;50.414;8.050;2024-01-15T15:48:02;2.70;99.90
25188;DHT22;13141;50.414;8.050;2024-01-15T15:50:28;2.70;99.90
25188;DHT22;13141;50.414;8.050;2024-01-15T15:52:55;2.70;99.90
25188;DHT22;13141;50.414;8.050;2024-01-15T15:55:23;2.70;99.90
25188;DHT22;13141;50.414;8.050;2024-01-15T15:57:48;2.70;99.90
25188;DHT22;13141;50.414;8.050;2024-01-15T16:00:14;2.70;99.90
25188;DHT22;13141;50.414;8.050;2024-01-15T16:02:40;2.60;99.90
25188;DHT22;13141;50.414;8.050;2024-01-15T16:05:06;2.60;99.90
25188;DHT22;13141;50.414;8.050;2024-01-15T16:07:32;2.50;99.90
25188;DHT22;13141;50.414;8.050;2024-01-15T16:09:58;2.50;99.90
25188;DHT22;13141;50.414;8.050;2024-01-15T16:12:25;2.50;99.90
25188;DHT22;13141;50.414;8.050;2024-01-15T16:14:51;2.50;99.90
25188;DHT22;13141;50.414;8.050;2024-01-15T16:17:17;2.50;99.90
25188;DHT22;13141;50.414;8.050;2024-01-15T16:19:43;2.50;99.90
25188;DHT22;13141;50.414;8.050;2024-01-15T16:22:09;2.40;99.90
25188;DHT22;13141;50.414;8.050;2024-01-15T16:24:35;2.40;99.90
25188;DHT22;13141;50.414;8.050;2024-01-15T16:27:00;2.40;99.90
25188;DHT22;13141;50.414;8.050;2024-01-15T16:29:27;2.40;99.90
25188;DHT22;13141;50.414;8.050;2024-01-15T16:31:53;2.40;99.90
25188;DHT22;13141;50.414;8.050;2024-01-15T16:34:18;2.40;99.90
25188;DHT22;13141;50.414;8.050;2024-01-15T16:36:44;2.40;99.90
25188;DHT22;13141;50.414;8.050;2024-01-15T16:39:10;2.40;99.90
25188;DHT22;13141;50.414;8.050;2024-01-15T16:41:36;2.40;99.90
25188;DHT22;13141;50.414;8.050;2024-01-15T16:44:02;2.40;99.90
25188;DHT22;13141;50.414;8.050;2024-01-15T16:46:29;2.40;99.90
25188;DHT22;13141;50.414;8.050;2024-01-15T16:48:54;2.40;99.90
25188;DHT22;13141;50.414;8.050;2024-01-15T16:51:20;2.50;99.90
25188;DHT22;13141;50.414;8.050;2024-01-15T16:53:48;2.50;99.90
25188;DHT22;13141;50.414;8.050;2024-01-15T16:56:13;2.50;99.90
25188;DHT22;13141;50.414;8.050;2024-01-15T16:58:39;2.10;99.90
25188;DHT22;13141;50.414;8.050;2024-01-15T17:01:05;2.50;99.90
25188;DHT22;13141;50.414;8.050;2024-01-15T17:03:32;2.40;99.90
25188;DHT22;13141;50.414;8.050;2024-01-15T17:05:57;2.40;99.90
25188;DHT22;13141;50.414;8.050;2024-01-15T17:08:24;2.40;99.90
25188;DHT22;13141;50.414;8.050;2024-01-15T17:10:50;2.50;99.90
25188;DHT22;13141;50.414;8.050;2024-01-15T17:13:16;2.50;99.90
25188;DHT22;13141;50.414;8.050;2024-01-15T17:15:41;2.50;99.90
25188;DHT22;13141;50.414;8.050;2024-01-15T17:18:07;2.50;99.90
25188;DHT22;13141;50.414;8.050;2024-01-15T17:20:34;2.50;99.90
25188;DHT22;13141;50.414;8.050;2024-01-15T17:23:00;2.50;99.90
25188;DHT22;13141;50.414;8.050;2024-01-15T17:25:26;2.50;99.90
25188;DHT22;13141;50.414;8.050;2024-01-15T17:27:51;2.50;99.90
25188;DHT22;13141;50.414;8.050;2024-01-15T17:30:17;2.50;99.90
25188;DHT22;13141;50.414;8.050;2024-01-15T17:32:43;2.50;99.90
25188;DHT22;13141;50.414;8.050;2024-01-15T17:35:08;2.40;99.90
25188;DHT22;13141;50.414;8.050;2024-01-15T17:37:35;2.60;99.90
25188;DHT22;13141;50.414;8.050;2024-01-15T17:40:01;2.50;99.90
25188;DHT22;13141;50.414;8.050;2024-01-15T17:42:27;2.40;99.90
25188;DHT22;13141;50.414;8.050;2024-01-15T17:44:53;1.80;99.90
25188;DHT22;13141;50.414;8.050;2024-01-15T17:47:19;2.40;99.90
25188;DHT22;13141;50.414;8.050;2024-01-15T17:49:45;2.40;99.90
25188;DHT22;13141;50.414;8.050;2024-01-15T17:52:10;2.30;99.90
25188;DHT22;13141;50.414;8.050;2024-01-15T17:54:37;2.30;99.90
25188;DHT22;13141;50.414;8.050;2024-01-15T17:57:04;2.30;99.90
25188;DHT22;13141;50.414;8.050;2024-01-15T17:59:30;2.30;99.90
25188;DHT22;13141;50.414;8.050;2024-01-15T18:01:56;2.30;99.90
25188;DHT22;13141;50.414;8.050;2024-01-15T18:04:21;2.30;99.90
25188;DHT22;13141;50.414;8.050;2024-01-15T18:06:47;2.30;99.90
25188;DHT22;13141;50.414;8.050;2024-01-15T18:09:13;2.40;99.90
25188;DHT22;13141;50.414;8.050;2024-01-15T18:11:41;2.40;99.90
25188;DHT22;13141;50.414;8.050;2024-01-15T18:14:07;2.40;99.90
25188;DHT22;13141;50.414;8.050;2024-01-15T18:16:32;2.40;99.90
25188;DHT22;13141;50.414;8.050;2024-01-15T18:18:58;2.30;99.90
25188;DHT22;13141;50.414;8.050;2024-01-15T18:21:25;2.40;99.90
25188;DHT22;13141;50.414;8.050;2024-01-15T18:23:50;2.40;99.90
25188;DHT22;13141;50.414;8.050;2024-01-15T18:26:16;2.40;99.90
25188;DHT22;13141;50.414;8.050;2024-01-15T18:28:43;2.40;99.90
25188;DHT22;13141;50.414;8.050;2024-01-15T18:31:10;2.40;99.90
25188;DHT22;13141;50.414;8.050;2024-01-15T18:33:36;2.40;99.90
25188;DHT22;13141;50.414;8.050;2024-01-15T18:36:02;2.30;99.90
25188;DHT22;13141;50.414;8.050;2024-01-15T18:38:27;2.30;99.90
25188;DHT22;13141;50.414;8.050;2024-01-15T18:40:53;2.40;99.90
25188;DHT22;13141;50.414;8.050;2024-01-15T18:43:19;2.40;99.90
25188;DHT22;13141;50.414;8.050;2024-01-15T18:45:46;2.30;99.90
25188;DHT22;13141;50.414;8.050;2024-01-15T18:48:12;2.40;99.90
25188;DHT22;13141;50.414;8.050;2024-01-15T18:50:37;2.40;99.90
25188;DHT22;13141;50.414;8.050;2024-01-15T18:53:03;2.40;99.90
25188;DHT22;13141;50.414;8.050;2024-01-15T18:55:29;2.40;99.90
25188;DHT22;13141;50.414;8.050;2024-01-15T18:57:55;2.40;99.90
25188;DHT22;13141;50.414;8.050;2024-01-15T19:00:20;2.40;99.90
25188;DHT22;13141;50.414;8.050;2024-01-15T19:02:48;2.40;99.90
25188;DHT22;13141;50.414;8.050;2024-01-15T19:05:13;2.40;99.90
25188;DHT22;13141;50.414;8.050;2024-01-15T19:07:40;2.40;99.90
25188;DHT22;13141;50.414;8.050;2024-01-15T19:10:07;2.40;99.90
25188;DHT22;13141;50.414;8.050;2024-01-15T19:12:32;2.40;99.90
25188;DHT22;13141;50.414;8.050;2024-01-15T19:14:58;2.30;99.90
25188;DHT22;13141;50.414;8.050;2024-01-15T19:17:24;2.30;99.90
25188;DHT22;13141;50.414;8.050;2024-01-15T19:19:50;2.40;99.90
25188;DHT22;13141;50.414;8.050;2024-01-15T19:22:16;2.40;99.90
25188;DHT22;13141;50.414;8.050;2024-01-15T19:24:42;2.40;99.90
25188;DHT22;13141;50.414;8.050;2024-01-15T19:27:08;2.40;99.90
25188;DHT22;13141;50.414;8.050;2024-01-15T19:29:33;2.40;99.90
25188;DHT22;13141;50.414;8.050;2024-01-15T19:31:59;2.40;99.90
25188;DHT22;13141;50.414;8.050;2024-01-15T19:34:24;2.40;99.90
25188;DHT22;13141;50.414;8.050;2024-01-15T19:36:52;2.30;99.90
25188;DHT22;13141;50.414;8.050;2024-01-15T19:39:19;2.30;99.90
25188;DHT22;13141;50.414;8.050;2024-01-15T19:41:46;2.30;99.90
25188;DHT22;13141;50.414;8.050;2024-01-15T19:44:12;2.30;99.90
25188;DHT22;13141;50.414;8.050;2024-01-15T19:46:37;2.30;99.90
25188;DHT22;13141;50.414;8.050;2024-01-15T19:49:03;2.30;99.90
25188;DHT22;13141;50.414;8.050;2024-01-15T19:51:28;2.30;99.90
25188;DHT22;13141;50.414;8.050;2024-01-15T19:53:56;2.30;99.90
25188;DHT22;13141;50.414;8.050;2024-01-15T19:56:22;2.30;99.90
25188;DHT22;13141;50.414;8.050;2024-01-15T19:58:50;2.30;99.90
25188;DHT22;13141;50.414;8.050;2024-01-15T20:01:15;2.20;99.90
25188;DHT22;13141;50.414;8.050;2024-01-15T20:03:41;2.20;99.90
25188;DHT22;13141;50.414;8.050;2024-01-15T20:06:07;2.20;99.90
25188;DHT22;13141;50.414;8.050;2024-01-15T20:08:33;2.00;99.90
25188;DHT22;13141;50.414;8.050;2024-01-15T20:11:01;2.20;99.90
25188;DHT22;13141;50.414;8.050;2024-01-15T20:13:28;2.50;99.90
25188;DHT22;13141;50.414;8.050;2024-01-15T20:15:56;2.20;99.90
25188;DHT22;13141;50.414;8.050;2024-01-15T20:18:21;2.20;99.90
25188;DHT22;13141;50.414;8.050;2024-01-15T20:20:47;2.20;99.90
25188;DHT22;13141;50.414;8.050;2024-01-15T20:23:13;2.20;99.90
25188;DHT22;13141;50.414;8.050;2024-01-15T20:25:39;2.30;99.90
25188;DHT22;13141;50.414;8.050;2024-01-15T20:28:07;2.20;99.90
25188;DHT22;13141;50.414;8.050;2024-01-15T20:30:34;2.10;99.90
25188;DHT22;13141;50.414;8.050;2024-01-15T20:33:00;2.10;99.90
25188;DHT22;13141;50.414;8.050;2024-01-15T20:35:26;2.10;99.90
25188;DHT22;13141;50.414;8.050;2024-01-15T20:37:52;2.10;99.90
25188;DHT22;13141;50.414;8.050;2024-01-15T20:40:17;2.10;99.90
25188;DHT22;13141;50.414;8.050;2024-01-15T20:42:43;2.20;99.90
25188;DHT22;13141;50.414;8.050;2024-01-15T20:45:10;2.20;99.90
25188;DHT22;13141;50.414;8.050;2024-01-15T20:47:36;2.20;99.90
25188;DHT22;13141;50.414;8.050;2024-01-15T20:50:01;2.20;99.90
25188;DHT22;13141;50.414;8.050;2024-01-15T20:52:27;2.20;99.90
25188;DHT22;13141;50.414;8.050;2024-01-15T20:54:53;2.20;99.90
25188;DHT22;13141;50.414;8.050;2024-01-15T20:57:19;2.30;99.90
25188;DHT22;13141;50.414;8.050;2024-01-15T20:59:45;2.30;99.90
25188;DHT22;13141;50.414;8.050;2024-01-15T21:02:13;2.30;99.90
25188;DHT22;13141;50.414;8.050;2024-01-15T21:04:39;2.30;99.90
25188;DHT22;13141;50.414;8.050;2024-01-15T21:07:05;2.30;99.90
25188;DHT22;13141;50.414;8.050;2024-01-15T21:09:31;2.40;99.90
25188;DHT22;13141;50.414;8.050;2024-01-15T21:11:57;2.30;99.90
25188;DHT22;13141;50.414;8.050;2024-01-15T21:14:23;2.40;99.90
25188;DHT22;13141;50.414;8.050;2024-01-15T21:16:48;2.40;99.90
25188;DHT22;13141;50.414;8.050;2024-01-15T21:19:16;2.40;99.90
25188;DHT22;13141;50.414;8.050;2024-01-15T21:21:43;2.40;99.90
25188;DHT22;13141;50.414;8.050;2024-01-15T21:24:09;2.40;99.90
25188;DHT22;13141;50.414;8.050;2024-01-15T21:26:35;2.40;99.90
25188;DHT22;13141;50.414;8.050;2024-01-15T21:29:00;2.40;99.90
25188;DHT22;13141;50.414;8.050;2024-01-15T21:31:26;2.40;99.90
25188;DHT22;13141;50.414;8.050;2024-01-15T21:33:52;2.40;99.90
25188;DHT22;13141;50.414;8.050;2024-01-15T21:36:19;2.40;99.90
25188;DHT22;13141;50.414;8.050;2024-01-15T21:38:44;2.40;99.90
25188;DHT22;13141;50.414;8.050;2024-01-15T21:41:10;2.40;99.90
25188;DHT22;13141;50.414;8.050;2024-01-15T21:43:36;2.40;99.90
25188;DHT22;13141;50.414;8.050;2024-01-15T21:46:01;2.40;99.90
25188;DHT22;13141;50.414;8.050;2024-01-15T21:48:27;2.40;99.90
25188;DHT22;13141;50.414;8.050;2024-01-15T21:50:53;2.40;99.90
25188;DHT22;13141;50.414;8.050;2024-01-15T21:53:20;2.40;99.90
25188;DHT22;13141;50.414;8.050;2024-01-15T21:55:46;2.50;99.90
25188;DHT22;13141;50.414;8.050;2024-01-15T21:58:11;2.40;99.90
25188;DHT22;13141;50.414;8.050;2024-01-15T22:00:37;2.40;99.90
25188;DHT22;13141;50.414;8.050;2024-01-15T22:03:04;2.40;99.90
25188;DHT22;13141;50.414;8.050;2024-01-15T22:05:30;2.40;99.90
25188;DHT22;13141;50.414;8.050;2024-01-15T22:07:55;2.40;99.90
25188;DHT22;13141;50.414;8.050;2024-01-15T22:10:23;2.40;99.90
25188;DHT22;13141;50.414;8.050;2024-01-15T22:12:49;2.40;99.90
25188;DHT22;13141;50.414;8.050;2024-01-15T22:15:16;2.50;99.90
25188;DHT22;13141;50.414;8.050;2024-01-15T22:17:42;2.50;99.90
25188;DHT22;13141;50.414;8.050;2024-01-15T22:20:08;2.50;99.90
25188;DHT22;13141;50.414;8.050;2024-01-15T22:22:34;2.40;99.90
25188;DHT22;13141;50.414;8.050;2024-01-15T22:25:00;2.40;99.90
25188;DHT22;13141;50.414;8.050;2024-01-15T22:27:27;2.40;99.90
25188;DHT22;13141;50.414;8.050;2024-01-15T22:29:52;2.40;99.90
25188;DHT22;13141;50.414;8.050;2024-01-15T22:32:18;2.50;99.90
25188;DHT22;13141;50.414;8.050;2024-01-15T22:34:43;2.40;99.90
25188;DHT22;13141;50.414;8.050;2024-01-15T22:37:09;2.30;99.90
25188;DHT22;13141;50.414;8.050;2024-01-15T22:39:35;2.30;99.90
25188;DHT22;13141;50.414;8.050;2024-01-15T22:42:00;2.20;99.90
25188;DHT22;13141;50.414;8.050;2024-01-15T22:44:27;2.20;99.90
25188;DHT22;13141;50.414;8.050;2024-01-15T22:46:53;2.20;99.90
25188;DHT22;13141;50.414;8.050;2024-01-15T22:49:19;2.20;99.90
25188;DHT22;13141;50.414;8.050;2024-01-15T22:51:44;2.30;99.90
25188;DHT22;13141;50.414;8.050;2024-01-15T22:54:10;2.30;99.90
25188;DHT22;13141;50.414;8.050;2024-01-15T22:56:36;2.30;99.90
25188;DHT22;13141;50.414;8.050;2024-01-15T22:59:02;2.30;99.90
25188;DHT22;13141;50.414;8.050;2024-01-15T23:01:29;2.20;99.90
25188;DHT22;13141;50.414;8.050;2024-01-15T23:03:54;2.20;99.90
25188;DHT22;13141;50.414;8.050;2024-01-15T23:06:20;2.20;99.90
25188;DHT22;13141;50.414;8.050;2024-01-15T23:08:46;2.20;99.90
25188;DHT22;13141;50.414;8.050;2024-01-15T23:11:12;2.30;99.90
25188;DHT22;13141;50.414;8.050;2024-01-15T23:13:39;2.30;99.90
25188;DHT22;13141;50.414;8.050;2024-01-15T23:16:05;2.30;99.90
25188;DHT22;13141;50.414;8.050;2024-01-15T23:18:32;2.30;99.90
25188;DHT22;13141;50.414;8.050;2024-01-15T23:20:58;2.20;99.90